Time;durP1;ratioP1;P1;durP2;ratioP2;P2;SDS_P1;SDS_P2;PMS_P1;PMS_P2;Temp;Humidity;BMP_temperature;BMP_pressure;BME280_temperature;BME280_humidity;BME280_pressure;Samples;Min_cycle;Max_cycle;Signal;HPM_P1;HPM_P2
2022/10/05 04:33:16;;;;;;;;;4.75;4.75;;;;;15.45;68.83;101434.91;5057764;28;45501;-59
2022/10/05 04:35:55;;;;;;;;;4.25;3.75;;;;;15.42;68.94;101435.06;5059276;28;45275;-59
2022/10/05 04:38:41;;;;;;;;;6.25;6.00;;;;;15.41;69.32;101428.78;5059470;28;45284;-58
2022/10/05 04:41:47;;;;;;;;;6.00;6.00;;;;;15.38;69.47;101438.91;5058820;28;45525;-59
2022/10/05 04:44:34;;;;;;;;;6.00;6.00;;;;;15.36;69.25;101425.47;5057430;28;45507;-58
2022/10/05 04:47:22;;;;;;;;;7.75;7.75;;;;;15.34;69.46;101426.50;5058471;28;45368;-59
2022/10/05 04:49:56;;;;;;;;;7.75;6.75;;;;;15.31;69.32;101421.28;5058516;28;46979;-59
2022/10/05 04:52:46;;;;;;;;;5.75;5.75;;;;;15.26;69.57;101429.63;5058392;28;45326;-59
2022/10/05 04:55:19;;;;;;;;;6.00;5.00;;;;;15.16;70.37;101417.56;5059187;28;45352;-59
2022/10/05 04:58:09;;;;;;;;;5.00;5.00;;;;;15.08;69.97;101423.41;5058862;28;45430;-59
2022/10/05 05:00:50;;;;;;;;;7.25;6.00;;;;;15.07;70.55;101421.66;5058828;28;45478;-59
2022/10/05 05:03:38;;;;;;;;;6.50;6.50;;;;;15.05;70.35;101412.78;5058383;28;45395;-58
2022/10/05 05:06:21;;;;;;;;;7.00;7.00;;;;;15.06;70.56;101413.63;5059259;28;45312;-59
2022/10/05 05:09:10;;;;;;;;;6.00;6.00;;;;;14.95;70.60;101403.41;5058670;28;45685;-58
2022/10/05 05:11:55;;;;;;;;;9.00;7.50;;;;;14.99;70.78;101406.81;5058525;28;45559;-58
2022/10/05 05:14:35;;;;;;;;;7.50;5.75;;;;;14.99;70.48;101406.81;5058872;28;45479;-58
2022/10/05 05:17:33;;;;;;;;;6.00;6.00;;;;;14.90;70.61;101391.09;5058221;28;45289;-57
2022/10/05 05:20:20;;;;;;;;;5.00;5.00;;;;;14.94;70.65;101404.38;5058605;28;45389;-58
2022/10/05 05:22:51;;;;;;;;;5.75;4.50;;;;;14.93;70.79;101402.63;5058384;28;45450;-59
2022/10/05 05:25:37;;;;;;;;;7.00;7.00;;;;;14.93;70.46;101396.34;5058635;28;45361;-60
2022/10/05 05:28:25;;;;;;;;;7.25;5.50;;;;;14.94;70.62;101395.41;5058557;28;45552;-58
2022/10/05 05:31:13;;;;;;;;;7.50;6.25;;;;;14.96;70.18;101398.91;5058784;28;45310;-58
2022/10/05 05:33:50;;;;;;;;;6.75;6.75;;;;;14.93;70.39;101389.13;5058504;28;45261;-58
2022/10/05 05:36:15;;;;;;;;;9.50;7.00;;;;;14.95;70.32;101391.75;5058451;28;45413;-58
2022/10/05 05:38:53;;;;;;;;;5.75;5.75;;;;;14.92;70.27;101394.59;5058808;28;45473;-59
2022/10/05 05:41:29;;;;;;;;;10.75;6.50;;;;;14.91;70.16;101391.03;5058452;28;45412;-59
2022/10/05 05:44:10;;;;;;;;;8.50;8.50;;;;;14.89;70.37;101389.34;5058250;28;45322;-59
2022/10/05 05:46:44;;;;;;;;;7.00;5.50;;;;;14.82;70.07;101374.44;5058612;28;45373;-59
2022/10/05 05:49:19;;;;;;;;;6.00;6.00;;;;;14.83;70.91;101385.16;5058629;28;45357;-59
2022/10/05 05:51:55;;;;;;;;;8.00;6.75;;;;;14.81;70.92;101383.50;5058404;28;45317;-60
2022/10/05 05:54:30;;;;;;;;;9.50;7.00;;;;;14.79;70.67;101385.41;5058209;28;46192;-59
2022/10/05 05:57:12;;;;;;;;;6.75;6.00;;;;;14.79;70.42;101380.03;5059573;28;45431;-60
2022/10/05 06:00:17;;;;;;;;;7.75;6.75;;;;;14.79;70.67;101386.28;5060937;28;45327;-60
2022/10/05 06:02:53;;;;;;;;;8.00;8.00;;;;;14.70;70.75;101381.38;5058084;28;45975;-59
2022/10/05 06:05:21;;;;;;;;;8.75;7.50;;;;;14.76;70.64;101402.66;5058275;28;45555;-60
2022/10/05 06:07:48;;;;;;;;;7.75;7.75;;;;;14.64;70.65;101381.69;5058282;28;45272;-59
2022/10/05 06:10:23;;;;;;;;;6.25;6.25;;;;;14.70;70.98;101394.88;5058568;28;45371;-60
2022/10/05 06:12:53;;;;;;;;;8.50;7.00;;;;;14.72;71.00;101393.81;5057897;28;45850;-59
2022/10/05 06:15:27;;;;;;;;;10.00;7.50;;;;;14.75;70.70;101390.09;5057962;28;47069;-59
2022/10/05 06:17:57;;;;;;;;;6.75;6.75;;;;;14.75;70.63;101388.28;5061603;28;45427;-59
2022/10/05 06:21:15;;;;;;;;;8.00;6.50;;;;;14.70;70.45;101379.56;5061643;28;45318;-60
2022/10/05 06:24:02;;;;;;;;;7.50;7.50;;;;;14.72;70.43;101383.03;5033427;28;45692;-59
2022/10/05 06:27:05;;;;;;;;;7.25;5.50;;;;;14.71;70.26;101389.41;5060530;28;47322;-59
2022/10/05 06:29:53;;;;;;;;;5.50;5.50;;;;;14.70;70.53;101384.97;5061107;28;45370;-60
2022/10/05 06:32:31;;;;;;;;;7.25;7.25;;;;;14.69;70.38;101391.31;5061173;28;45350;-60
2022/10/05 06:35:10;;;;;;;;;5.75;5.75;;;;;14.68;70.71;101392.25;5061336;28;45555;-60
2022/10/05 06:37:44;;;;;;;;;6.00;6.00;;;;;14.66;71.20;101391.44;5061172;28;46980;-60
2022/10/05 06:40:15;;;;;;;;;7.25;7.25;;;;;14.65;70.80;101395.09;5061361;28;45248;-60
2022/10/05 06:43:27;;;;;;;;;9.00;7.75;;;;;14.67;70.84;101387.81;5061067;28;45480;-60
2022/10/05 06:46:12;;;;;;;;;11.50;9.75;;;;;14.67;70.71;101384.22;5053312;28;45633;-59
2022/10/05 06:48:54;;;;;;;;;4.00;4.00;;;;;14.65;70.73;101384.31;5060998;28;45465;-59
2022/10/05 06:51:48;;;;;;;;;7.00;5.50;;;;;14.67;71.05;101376.13;5061110;28;45566;-59
2022/10/05 06:54:33;;;;;;;;;9.00;8.00;;;;;14.75;70.55;101387.41;5060966;28;45432;-59
2022/10/05 06:57:14;;;;;;;;;7.00;6.50;;;;;14.79;70.58;101383.59;5060841;28;45370;-60
2022/10/05 07:00:03;;;;;;;;;8.00;7.25;;;;;14.74;70.38;101369.44;5060350;28;45368;-60
2022/10/05 07:02:43;;;;;;;;;7.00;7.00;;;;;14.81;70.68;101386.19;5060793;28;45543;-59
2022/10/05 07:05:46;;;;;;;;;9.00;7.00;;;;;14.79;70.50;101389.00;5060989;28;45374;-60
2022/10/05 07:08:33;;;;;;;;;9.00;7.50;;;;;14.76;70.79;101372.94;5060893;28;45610;-60
2022/10/05 07:11:03;;;;;;;;;8.25;7.75;;;;;14.76;71.02;101392.72;5060832;28;45518;-59
2022/10/05 07:13:53;;;;;;;;;8.75;8.75;;;;;14.77;70.92;101390.91;5060225;28;45454;-60
2022/10/05 07:16:37;;;;;;;;;8.50;8.50;;;;;14.81;71.30;101392.47;5060820;28;45264;-59
2022/10/05 07:19:30;;;;;;;;;7.50;6.50;;;;;14.85;71.44;101401.28;5060712;28;45225;-60
2022/10/05 07:22:17;;;;;;;;;8.75;8.25;;;;;14.88;71.82;101396.59;5060419;28;46482;-60
2022/10/05 07:25:14;;;;;;;;;12.75;10.50;;;;;14.84;72.00;101397.72;5060396;28;45357;-59
2022/10/05 07:27:53;;;;;;;;;7.75;6.25;;;;;14.81;72.02;101402.38;5060369;28;45293;-60
2022/10/05 07:30:19;;;;;;;;;8.00;8.00;;;;;14.80;72.34;101396.09;5060376;28;45511;-60
2022/10/05 07:33:10;;;;;;;;;8.00;8.00;;;;;14.88;72.48;101410.09;5061635;28;45521;-60
2022/10/05 07:39:02;;;;;;;;;10.50;8.75;;;;;14.96;72.03;101407.88;5060448;28;45386;-59
2022/10/05 07:41:39;;;;;;;;;7.50;7.50;;;;;15.03;72.04;101416.50;5059296;28;45318;-59
2022/10/05 07:44:12;;;;;;;;;11.75;10.50;;;;;15.07;72.01;101418.06;5058665;28;46190;-59
2022/10/05 07:46:40;;;;;;;;;8.25;8.25;;;;;15.12;72.10;101421.41;5060596;28;45408;-59
2022/10/05 07:49:20;;;;;;;;;8.75;7.50;;;;;15.17;72.07;101424.72;5059777;28;45434;-59
2022/10/05 07:51:59;;;;;;;;;9.00;7.75;;;;;15.17;71.91;101423.84;5060093;28;45520;-59
2022/10/05 07:54:53;;;;;;;;;11.00;7.00;;;;;15.24;71.99;101425.25;5060001;28;46096;-60
2022/10/05 07:57:37;;;;;;;;;10.00;9.50;;;;;15.28;72.17;101426.84;5046353;28;45477;-59
2022/10/05 08:00:21;;;;;;;;;6.25;6.25;;;;;15.28;72.36;101426.84;5060142;28;45259;-59
2022/10/05 08:02:58;;;;;;;;;9.00;8.50;;;;;15.34;72.89;101424.69;5047614;28;45968;-59
2022/10/05 08:05:39;;;;;;;;;6.25;6.25;;;;;15.26;73.06;101432.34;5059894;28;45505;-59
2022/10/05 08:08:27;;;;;;;;;8.00;5.50;;;;;15.31;73.38;101429.41;5059997;28;45325;-59
2022/10/05 08:11:11;;;;;;;;;5.75;5.75;;;;;15.39;72.83;101436.13;5060106;28;45300;-59
2022/10/05 08:14:05;;;;;;;;;7.25;7.25;;;;;15.45;73.18;101430.38;5059641;28;45375;-60
2022/10/05 08:16:36;;;;;;;;;5.75;5.00;;;;;15.44;73.19;101428.63;5059715;28;47185;-60
2022/10/05 08:19:14;;;;;;;;;5.75;5.75;;;;;15.40;73.24;101418.06;5059803;28;45427;-60
2022/10/05 08:21:46;;;;;;;;;6.25;6.25;;;;;15.50;73.51;101413.91;5059799;28;45438;-60
2022/10/05 08:24:37;;;;;;;;;7.00;6.25;;;;;15.62;72.99;101429.47;5059659;28;45375;-62
2022/10/05 08:27:12;;;;;;;;;8.00;6.75;;;;;15.69;73.15;101433.56;5059614;28;45319;-60
2022/10/05 08:30:04;;;;;;;;;6.00;6.00;;;;;15.83;72.82;101430.94;5059588;28;45333;-59
2022/10/05 08:32:40;;;;;;;;;5.75;5.75;;;;;15.83;72.78;101430.94;5059415;28;45510;-60
2022/10/05 08:35:36;;;;;;;;;7.00;7.00;;;;;15.93;72.98;101427.72;5059306;28;45914;-59
2022/10/05 08:38:09;;;;;;;;;5.00;5.00;;;;;15.96;72.91;101419.44;5058515;28;45339;-59
2022/10/05 08:41:13;;;;;;;;;6.25;6.25;;;;;16.10;72.50;101439.31;5059290;28;45350;-60
2022/10/05 08:43:47;;;;;;;;;5.00;5.00;;;;;16.19;72.43;101437.91;5058706;28;45469;-61
2022/10/05 08:46:34;;;;;;;;;6.00;6.00;;;;;16.20;72.18;101440.53;5059130;28;45362;-61
2022/10/05 08:49:27;;;;;;;;;6.00;6.00;;;;;16.31;72.26;101428.22;5059100;28;45774;-61
2022/10/05 08:52:23;;;;;;;;;6.50;6.25;;;;;16.33;71.85;101429.00;5059110;28;45304;-59
2022/10/05 08:55:26;;;;;;;;;5.00;5.00;;;;;16.39;71.81;101440.34;5059405;28;45185;-60
2022/10/05 08:58:22;;;;;;;;;4.25;4.25;;;;;16.48;71.74;101438.94;5058692;28;45270;-61
2022/10/05 09:00:54;;;;;;;;;5.25;5.25;;;;;16.51;71.31;101450.41;5059061;28;45345;-62
2022/10/05 09:03:42;;;;;;;;;7.25;6.25;;;;;16.61;71.31;101454.38;5058388;28;45422;-60
2022/10/05 09:06:49;;;;;;;;;5.25;4.75;;;;;16.59;71.11;101426.47;5061876;28;45367;-60
2022/10/05 09:09:31;;;;;;;;;6.00;6.00;;;;;16.87;70.64;101447.38;5005188;28;45537;-60
2022/10/05 09:12:07;;;;;;;;;4.00;4.00;;;;;16.90;70.29;101441.78;5058822;28;46200;-59
2022/10/05 09:14:51;;;;;;;;;11.00;7.25;;;;;17.03;70.07;101447.31;5058827;28;45362;-59
2022/10/05 09:17:28;;;;;;;;;4.25;4.25;;;;;17.10;69.93;101447.81;5059121;28;45427;-60
2022/10/05 09:20:21;;;;;;;;;6.00;6.00;;;;;17.14;69.90;101443.94;5058767;28;45327;-59
2022/10/05 09:22:46;;;;;;;;;4.50;4.50;;;;;17.17;69.65;101446.47;5058781;28;45413;-60
2022/10/05 09:25:46;;;;;;;;;7.75;7.75;;;;;17.26;68.88;101437.78;5058620;28;45432;-60
2022/10/05 09:28:38;;;;;;;;;6.00;5.00;;;;;17.36;68.36;101449.75;5054361;28;45568;-60
2022/10/05 09:31:20;;;;;;;;;6.00;6.00;;;;;17.31;68.38;101436.50;5057093;28;45463;-58
2022/10/05 09:34:07;;;;;;;;;5.75;4.25;;;;;17.45;68.09;101448.31;5058689;28;47253;-59
2022/10/05 09:37:02;;;;;;;;;5.50;5.50;;;;;17.45;67.29;101448.31;5058705;28;45359;-60
2022/10/05 09:39:46;;;;;;;;;5.75;5.75;;;;;17.47;67.71;101451.78;5031605;28;45422;-60
2022/10/05 09:42:30;;;;;;;;;5.25;5.25;;;;;17.50;67.79;101463.34;5058264;28;45357;-59
2022/10/05 09:45:10;;;;;;;;;6.00;6.00;;;;;17.57;67.06;101455.66;5058316;28;45320;-59
2022/10/05 09:47:54;;;;;;;;;3.25;3.25;;;;;17.51;66.74;101453.34;5058374;28;45257;-59
2022/10/05 09:50:53;;;;;;;;;5.50;5.00;;;;;17.54;66.51;101456.72;5059861;28;45454;-59
2022/10/05 09:53:41;;;;;;;;;4.75;4.00;;;;;17.53;66.02;101457.69;5052197;28;45249;-59
2022/10/05 09:56:20;;;;;;;;;3.25;3.25;;;;;17.58;65.48;101457.41;5061891;28;45384;-59
2022/10/05 09:59:22;;;;;;;;;5.00;5.00;;;;;17.50;65.77;101444.34;5061793;28;45443;-59
2022/10/05 10:02:15;;;;;;;;;6.00;4.25;;;;;17.53;65.44;101446.84;5062090;28;45422;-59
2022/10/05 10:04:42;;;;;;;;;5.50;5.50;;;;;17.67;65.73;101448.72;5061635;28;45511;-59
2022/10/05 10:07:49;;;;;;;;;6.25;6.00;;;;;17.80;65.24;101441.53;5061768;28;45496;-59
2022/10/05 10:10:28;;;;;;;;;5.00;5.00;;;;;17.85;64.18;101457.53;5061495;28;45228;-59
2022/10/05 10:13:21;;;;;;;;;4.50;4.50;;;;;17.82;62.54;101463.13;5061550;28;45431;-60
2022/10/05 10:16:04;;;;;;;;;2.25;2.00;;;;;17.70;61.41;101441.25;5061703;28;45293;-59
2022/10/05 10:18:58;;;;;;;;;3.00;3.00;;;;;17.75;61.01;101468.97;5061537;28;47555;-59
2022/10/05 10:21:53;;;;;;;;;3.25;3.25;;;;;17.83;60.96;101462.16;5061100;28;45401;-59
2022/10/05 10:24:47;;;;;;;;;2.00;2.00;;;;;17.89;60.55;101448.19;5061806;28;45349;-59
2022/10/05 10:27:35;;;;;;;;;4.75;3.00;;;;;17.93;60.42;101433.47;5061285;28;45469;-60
2022/10/05 10:30:57;;;;;;;;;3.00;3.00;;;;;17.86;60.72;101443.88;5061116;28;46984;-59
2022/10/05 10:33:50;;;;;;;;;4.50;4.00;;;;;17.90;60.43;101447.22;4999277;28;45352;-59
2022/10/05 10:36:31;;;;;;;;;4.75;4.75;;;;;17.80;60.37;101446.97;5000029;28;45380;-61
2022/10/05 10:39:24;;;;;;;;;4.00;4.00;;;;;17.87;60.56;101452.84;5045018;28;46123;-59
2022/10/05 10:41:56;;;;;;;;;3.50;3.50;;;;;17.95;60.47;101437.81;5059387;28;47272;-59
2022/10/05 10:44:46;;;;;;;;;3.00;3.00;;;;;18.10;60.19;101433.25;5059922;28;45394;-59
2022/10/05 10:47:32;;;;;;;;;5.00;3.00;;;;;18.32;60.25;101428.09;5058119;28;45363;-59
2022/10/05 10:50:25;;;;;;;;;5.00;3.75;;;;;18.45;58.91;101420.88;5058688;28;45301;-60
2022/10/05 10:53:01;;;;;;;;;4.00;3.75;;;;;18.59;58.83;101419.09;5058883;28;46140;-60
2022/10/05 10:55:48;;;;;;;;;4.50;4.50;;;;;18.59;58.09;101416.38;5057160;28;45430;-59
2022/10/05 10:58:38;;;;;;;;;4.00;3.00;;;;;18.66;58.23;101415.84;5057974;28;45209;-59
2022/10/05 11:01:39;;;;;;;;;3.00;3.00;;;;;18.79;58.13;101407.75;5058858;28;45319;-59
2022/10/05 11:04:29;;;;;;;;;3.00;3.00;;;;;19.06;57.67;101410.34;5059387;28;45551;-60
2022/10/05 11:07:15;;;;;;;;;4.25;4.25;;;;;19.43;56.45;101398.59;5058050;28;45420;-59
2022/10/05 11:09:44;;;;;;;;;4.00;4.00;;;;;19.75;55.67;101407.13;5059061;28;45313;-60
2022/10/05 11:12:47;;;;;;;;;4.25;4.25;;;;;20.14;55.31;101384.25;5059490;28;45411;-59
2022/10/05 11:15:15;;;;;;;;;4.25;4.25;;;;;20.55;53.84;101383.84;5057945;28;45921;-58
2022/10/05 11:18:02;;;;;;;;;4.25;4.25;;;;;20.92;53.40;101375.50;5058394;28;45460;-59
2022/10/05 11:20:45;;;;;;;;;6.00;4.25;;;;;21.41;51.95;101380.66;5059310;28;45378;-60
2022/10/05 11:23:23;;;;;;;;;2.25;2.25;;;;;21.70;50.48;101381.84;5054753;28;45513;-59
2022/10/05 11:26:07;;;;;;;;;3.00;3.00;;;;;21.95;49.33;101368.94;5060515;28;45340;-59
2022/10/05 11:29:09;;;;;;;;;4.00;2.25;;;;;22.03;49.02;101386.41;5060176;28;45327;-58
2022/10/05 11:32:12;;;;;;;;;5.50;3.00;;;;;22.27;48.67;101356.19;5060018;28;45478;-59
2022/10/05 11:34:55;;;;;;;;;3.25;2.00;;;;;23.03;47.26;101368.69;5056275;28;45361;-60
2022/10/05 11:37:37;;;;;;;;;3.25;2.25;;;;;23.74;45.37;101351.28;5060216;28;45232;-59
2022/10/05 11:40:23;;;;;;;;;2.50;1.75;;;;;24.51;43.74;101345.03;5060389;28;45262;-59
2022/10/05 11:43:06;;;;;;;;;4.50;3.00;;;;;25.29;41.85;101359.47;5060032;28;45414;-59
2022/10/05 11:45:41;;;;;;;;;1.75;1.75;;;;;26.04;41.15;101359.22;5060159;28;45468;-59
2022/10/05 11:48:34;;;;;;;;;3.00;3.00;;;;;27.25;38.81;101364.06;5060370;28;46349;-59
2022/10/05 11:51:22;;;;;;;;;2.00;2.00;;;;;28.23;36.24;101358.81;5056889;28;45536;-60
2022/10/05 11:54:16;;;;;;;;;1.00;1.00;;;;;28.83;35.41;101352.16;5058452;28;45329;-59
2022/10/05 11:56:58;;;;;;;;;1.25;1.25;;;;;29.33;34.46;101346.34;5059290;28;45319;-60
2022/10/05 11:59:25;;;;;;;;;2.50;2.50;;;;;29.86;33.58;101342.81;5060415;28;46235;-59
2022/10/05 12:02:23;;;;;;;;;2.00;2.00;;;;;29.94;33.61;101328.16;5060421;28;45364;-60
2022/10/05 12:04:56;;;;;;;;;2.25;2.25;;;;;30.61;33.51;101343.06;5033681;28;45312;-59
2022/10/05 12:07:27;;;;;;;;;4.75;2.25;;;;;30.26;33.26;101333.44;5059759;28;45383;-60
2022/10/05 12:10:16;;;;;;;;;2.00;2.00;;;;;30.82;32.68;101340.44;5057621;28;46126;-58
2022/10/05 12:13:08;;;;;;;;;5.00;2.75;;;;;30.86;31.91;101326.22;5047819;28;45430;-59
2022/10/05 12:16:05;;;;;;;;;2.25;2.25;;;;;31.63;31.66;101333.19;5059345;28;45513;-60
2022/10/05 12:18:30;;;;;;;;;1.75;1.25;;;;;31.51;31.53;101337.44;5059328;28;45362;-58
2022/10/05 12:21:23;;;;;;;;;2.00;2.00;;;;;31.05;32.31;101334.81;5058604;28;46336;-58
2022/10/05 12:24:19;;;;;;;;;4.00;4.00;;;;;29.65;34.19;101337.06;5046832;28;45327;-59
2022/10/05 12:27:14;;;;;;;;;4.00;2.75;;;;;29.26;35.17;101345.31;5059485;28;45276;-60
2022/10/05 12:30:17;;;;;;;;;1.50;1.50;;;;;29.73;34.17;101332.38;5052560;28;45275;-59
2022/10/05 12:32:48;;;;;;;;;3.25;3.25;;;;;29.69;34.35;101322.69;4996771;28;46534;-59
2022/10/05 12:35:21;;;;;;;;;2.00;2.00;;;;;29.83;33.53;101334.06;5049957;28;45466;-59
2022/10/05 12:37:53;;;;;;;;;3.50;2.00;;;;;29.62;33.88;101330.00;5059374;28;45386;-59
2022/10/05 12:40:42;;;;;;;;;0.00;0.00;;;;;29.88;33.89;101323.28;5059592;28;45331;-60
2022/10/05 12:43:37;;;;;;;;;3.00;1.75;;;;;30.25;34.44;101328.09;5048126;28;46266;-60
2022/10/05 12:46:16;;;;;;;;;2.00;2.00;;;;;30.07;33.95;101320.97;5059364;28;45343;-59
2022/10/05 12:49:06;;;;;;;;;2.00;2.00;;;;;28.68;35.65;101318.81;5059131;28;45334;-60
2022/10/05 12:51:57;;;;;;;;;2.50;2.50;;;;;27.60;37.47;101314.34;5058674;28;46057;-58
2022/10/05 12:54:31;;;;;;;;;2.00;2.00;;;;;27.37;37.43;101330.59;5058954;28;46032;-59
2022/10/05 12:57:02;;;;;;;;;2.00;2.00;;;;;27.37;38.24;101319.56;5059012;28;45331;-59
2022/10/05 12:59:44;;;;;;;;;2.25;2.25;;;;;27.21;38.49;101332.41;5059485;28;45409;-59
2022/10/05 13:02:18;;;;;;;;;2.00;2.00;;;;;27.76;38.53;101328.16;5057791;28;46475;-59
2022/10/05 13:05:10;;;;;;;;;1.75;1.75;;;;;27.74;37.89;101327.47;5057806;28;45489;-59
2022/10/05 13:08:11;;;;;;;;;3.50;3.50;;;;;27.27;37.87;101326.22;5056872;28;45403;-61
2022/10/05 13:11:00;;;;;;;;;2.75;2.25;;;;;26.15;40.28;101338.88;5057132;28;45692;-60
2022/10/05 13:13:38;;;;;;;;;2.25;1.75;;;;;25.87;40.64;101344.44;5054884;28;45507;-60
2022/10/05 13:16:08;;;;;;;;;2.50;2.00;;;;;24.94;42.84;101354.66;5055063;28;46666;-59
2022/10/05 13:18:47;;;;;;;;;3.50;3.50;;;;;24.46;43.80;101383.00;5057543;28;45458;-61
2022/10/05 13:21:37;;;;;;;;;3.00;3.00;;;;;23.94;44.78;101345.84;5056446;28;45533;-61
2022/10/05 13:24:30;;;;;;;;;2.00;2.00;;;;;23.91;45.53;101336.03;5054341;28;45882;-61
2022/10/05 13:27:21;;;;;;;;;3.25;3.00;;;;;24.02;45.35;101346.00;5056505;28;46392;-60
2022/10/05 13:30:05;;;;;;;;;3.50;3.50;;;;;23.97;45.58;101351.06;5055095;28;45460;-61
2022/10/05 13:32:43;;;;;;;;;6.00;3.00;;;;;23.78;45.58;101360.09;5055865;28;45488;-60
2022/10/05 13:35:27;;;;;;;;;3.75;3.75;;;;;23.46;46.84;101373.06;5055529;28;45299;-60
2022/10/05 13:38:14;;;;;;;;;1.00;1.00;;;;;23.12;47.67;101362.41;5055959;28;45323;-60
2022/10/05 13:40:48;;;;;;;;;3.75;3.75;;;;;22.96;47.70;101351.09;5057016;28;45342;-59
2022/10/05 13:43:37;;;;;;;;;3.25;3.25;;;;;22.81;48.71;101361.50;5056018;28;45504;-58
2022/10/05 13:46:16;;;;;;;;;5.00;3.75;;;;;22.73;48.76;101366.72;5054397;28;45237;-60
2022/10/05 13:48:54;;;;;;;;;3.50;3.50;;;;;22.96;48.19;101370.25;5054326;28;46447;-60
2022/10/05 13:51:44;;;;;;;;;5.25;3.75;;;;;23.39;47.75;101365.41;5056643;28;45475;-59
2022/10/05 13:54:22;;;;;;;;;1.50;1.50;;;;;24.02;46.49;101382.47;5055788;28;45501;-60
2022/10/05 13:56:53;;;;;;;;;3.25;3.25;;;;;24.57;44.78;101391.06;5054679;28;45241;-60
2022/10/05 13:59:34;;;;;;;;;6.00;4.75;;;;;25.18;43.83;101355.88;5056652;28;45360;-58
2022/10/05 14:02:16;;;;;;;;;5.50;2.75;;;;;25.24;43.32;101357.19;5056961;28;45327;-60
2022/10/05 14:04:49;;;;;;;;;3.75;3.75;;;;;25.47;42.94;101368.63;5054189;28;45297;-60
2022/10/05 14:07:30;;;;;;;;;5.00;5.00;;;;;25.46;43.22;101355.91;5056506;28;45354;-60
2022/10/05 14:09:56;;;;;;;;;2.75;2.75;;;;;25.20;43.56;101347.50;5054417;28;47249;-59
2022/10/05 14:12:22;;;;;;;;;3.00;3.00;;;;;25.37;43.47;101348.59;5056491;28;45547;-60
2022/10/05 14:14:56;;;;;;;;;5.00;5.00;;;;;25.17;44.09;101354.19;5056582;28;45363;-59
2022/10/05 14:17:27;;;;;;;;;3.75;3.75;;;;;25.31;43.61;101362.91;5056418;28;45521;-59
2022/10/05 14:19:58;;;;;;;;;5.00;5.00;;;;;25.42;44.16;101365.50;5056502;28;45297;-61
2022/10/05 14:22:25;;;;;;;;;4.25;4.25;;;;;25.57;43.72;101362.09;5053731;28;45387;-61
2022/10/05 14:25:01;;;;;;;;;4.25;4.25;;;;;25.44;43.90;101356.06;5056449;28;45495;-60
2022/10/05 14:27:31;;;;;;;;;3.50;3.50;;;;;25.24;43.55;101368.16;5054444;28;45618;-60
2022/10/05 14:30:02;;;;;;;;;4.00;4.00;;;;;25.52;43.54;101369.91;5057320;28;46120;-59
2022/10/05 14:32:32;;;;;;;;;6.25;4.00;;;;;25.50;44.01;101360.97;5056411;28;45494;-58
2022/10/05 14:35:04;;;;;;;;;3.00;3.00;;;;;25.63;43.32;101369.75;5057485;28;45413;-60
2022/10/05 14:37:57;;;;;;;;;5.00;4.00;;;;;25.47;43.22;101382.34;5059319;28;45284;-60
2022/10/05 14:40:33;;;;;;;;;4.75;4.75;;;;;25.46;43.84;101376.00;5061221;28;46037;-59
2022/10/05 14:43:12;;;;;;;;;3.25;3.25;;;;;25.61;42.91;101365.41;5060422;28;45287;-60
2022/10/05 14:45:58;;;;;;;;;1.75;0.75;;;;;25.69;42.90;101378.41;5062239;28;45319;-61
2022/10/05 14:48:27;;;;;;;;;2.00;1.75;;;;;25.61;43.25;101359.91;5060664;28;45566;-60
2022/10/05 14:51:00;;;;;;;;;4.75;4.50;;;;;25.85;43.38;101375.84;5060731;28;46168;-60
2022/10/05 14:53:42;;;;;;;;;5.00;5.00;;;;;25.98;42.54;101362.59;5061021;28;45347;-60
2022/10/05 14:56:35;;;;;;;;;4.00;4.00;;;;;26.23;41.93;101374.69;5061083;28;45256;-60
2022/10/05 14:59:25;;;;;;;;;6.75;4.00;;;;;26.46;41.97;101358.63;5036508;28;45429;-59
2022/10/05 15:01:57;;;;;;;;;5.25;5.25;;;;;26.65;41.13;101366.69;5060600;28;46084;-59
2022/10/05 15:04:33;;;;;;;;;5.50;3.50;;;;;26.99;41.29;101361.31;5061034;28;45430;-59
2022/10/05 15:07:20;;;;;;;;;3.00;3.00;;;;;27.10;39.78;101372.06;5060624;28;45532;-59
2022/10/05 15:09:54;;;;;;;;;5.00;4.00;;;;;27.06;40.38;101373.41;5059589;28;45527;-59
2022/10/05 15:12:48;;;;;;;;;5.25;4.00;;;;;26.85;40.80;101361.88;5059864;28;46407;-59
2022/10/05 15:15:32;;;;;;;;;5.50;4.00;;;;;26.84;40.34;101384.91;5058972;28;45386;-60
2022/10/05 15:18:21;;;;;;;;;4.50;4.25;;;;;26.88;40.82;101375.34;5058830;28;45461;-60
2022/10/05 15:20:56;;;;;;;;;6.75;4.00;;;;;27.13;40.56;101373.66;5060327;28;45330;-61
2022/10/05 15:23:29;;;;;;;;;6.75;5.00;;;;;27.05;40.58;101378.03;5059276;28;46366;-61
2022/10/05 15:26:24;;;;;;;;;8.25;3.00;;;;;27.04;40.97;101383.72;5060196;28;45313;-60
2022/10/05 15:29:16;;;;;;;;;5.25;5.25;;;;;26.58;41.62;101391.25;5060232;28;45560;-60
2022/10/05 15:31:59;;;;;;;;;7.00;5.00;;;;;26.27;41.72;101381.66;5059659;28;45603;-60
2022/10/05 15:34:48;;;;;;;;;5.00;5.00;;;;;26.16;42.41;101381.84;5060292;28;45378;-60
2022/10/05 15:37:26;;;;;;;;;4.25;4.25;;;;;26.18;42.35;101388.06;5060345;28;45393;-59
2022/10/05 15:39:55;;;;;;;;;6.00;5.00;;;;;26.06;42.74;101381.03;5060293;28;45390;-59
2022/10/05 15:42:44;;;;;;;;;3.75;3.75;;;;;25.87;43.46;101382.03;5059911;28;45310;-58
2022/10/05 15:45:24;;;;;;;;;9.00;3.75;;;;;25.65;43.54;101391.56;5058390;28;45341;-60
2022/10/05 15:48:04;;;;;;;;;4.00;4.00;;;;;25.03;45.05;101392.19;5060016;28;45367;-60
2022/10/05 15:50:55;;;;;;;;;4.25;4.25;;;;;24.59;46.31;101394.50;5060276;28;45351;-60
2022/10/05 15:53:39;;;;;;;;;4.75;4.75;;;;;24.09;47.45;101400.06;5060256;28;45364;-59
2022/10/05 15:56:08;;;;;;;;;6.50;5.25;;;;;23.83;47.61;101400.72;5058301;28;46199;-59
2022/10/05 15:58:52;;;;;;;;;3.25;1.50;;;;;23.60;48.63;101400.97;5060078;28;45501;-60
2022/10/05 16:01:48;;;;;;;;;6.00;6.00;;;;;23.45;49.34;101418.72;5059972;28;45370;-60
2022/10/05 16:04:38;;;;;;;;;5.00;5.00;;;;;23.24;49.85;101415.16;5060361;28;45561;-61
2022/10/05 16:10:08;;;;;;;;;5.00;5.00;;;;;22.82;51.55;101408.84;5059691;28;45284;-61
2022/10/05 16:12:57;;;;;;;;;5.75;3.00;;;;;22.75;51.85;101418.56;5058976;28;45302;-59
2022/10/05 16:15:32;;;;;;;;;5.75;5.75;;;;;22.65;51.53;101427.53;5059463;28;45328;-59
2022/10/05 16:18:06;;;;;;;;;7.50;7.50;;;;;22.60;52.07;101439.88;5059256;28;45495;-59
2022/10/05 16:20:42;;;;;;;;;4.75;4.75;;;;;22.56;52.33;101439.25;5059486;28;45383;-59
2022/10/05 16:23:17;;;;;;;;;5.00;5.00;;;;;22.41;52.85;101424.16;5059748;28;45459;-59
2022/10/05 16:26:16;;;;;;;;;6.50;5.50;;;;;22.44;52.47;101428.50;5059620;28;45392;-59
2022/10/05 16:28:55;;;;;;;;;4.50;4.50;;;;;22.38;53.01;101421.69;5058941;28;45324;-62
2022/10/05 16:31:59;;;;;;;;;6.75;6.25;;;;;22.41;53.18;101434.22;5059250;28;45355;-61
2022/10/05 16:34:38;;;;;;;;;5.00;5.00;;;;;22.27;53.25;101451.78;5059601;28;45338;-62
2022/10/05 16:37:08;;;;;;;;;14.50;5.25;;;;;22.28;53.47;101445.34;5059553;28;45490;-62
2022/10/05 16:39:49;;;;;;;;;5.00;5.00;;;;;22.23;53.40;101463.94;5059091;28;46336;-62
2022/10/05 16:42:23;;;;;;;;;8.00;7.00;;;;;22.11;54.06;101462.25;5059292;28;45372;-62
2022/10/05 16:44:57;;;;;;;;;8.00;8.00;;;;;22.13;54.02;101457.50;5058866;28;45340;-61
2022/10/05 16:47:53;;;;;;;;;7.75;5.50;;;;;21.93;54.58;101466.47;5059396;28;45681;-62
2022/10/05 16:50:21;;;;;;;;;7.50;7.25;;;;;21.88;55.01;101461.38;5059179;28;46198;-62
2022/10/05 16:52:54;;;;;;;;;7.75;7.75;;;;;21.92;54.72;101470.19;5059127;28;45363;-62
2022/10/05 16:55:47;;;;;;;;;11.75;7.00;;;;;21.85;55.13;101472.56;5058905;28;45315;-62
2022/10/05 16:58:36;;;;;;;;;9.00;9.00;;;;;21.78;56.09;101474.03;5057962;28;45510;-63
2022/10/05 17:01:14;;;;;;;;;6.25;4.75;;;;;21.79;55.57;101464.84;5058530;28;46166;-64
2022/10/05 17:03:55;;;;;;;;;8.75;8.50;;;;;21.70;55.60;101473.78;5058732;28;45352;-64
2022/10/05 17:06:53;;;;;;;;;9.25;9.00;;;;;21.58;56.20;101472.94;5059229;28;45407;-63
2022/10/05 17:09:26;;;;;;;;;9.00;8.00;;;;;21.47;56.88;101476.50;5059008;28;45414;-63
2022/10/05 17:12:16;;;;;;;;;6.00;6.00;;;;;21.52;56.66;101495.25;5058725;28;45290;-64
2022/10/05 17:14:56;;;;;;;;;6.25;6.25;;;;;21.47;57.08;101481.97;5058944;28;45375;-63
2022/10/05 17:17:36;;;;;;;;;6.00;6.00;;;;;21.51;57.02;101486.19;5059272;28;45382;-64